Time;durP1;ratioP1;P1;durP2;ratioP2;P2;SDS_P1;SDS_P2;PMS_P1;PMS_P2;Temp;Humidity;BMP_temperature;BMP_pressure;BME280_temperature;BME280_humidity;BME280_pressure;Samples;Min_cycle;Max_cycle;Signal;HPM_P1;HPM_P2
2022/08/27 00:00:21;;;;;;;7.77;6.60;;;26.20;52.40;;;;;;5073410;28;20407;-44
2022/08/27 00:02:47;;;;;;;9.47;6.73;;;26.20;52.40;;;;;;5073590;28;20402;-44
2022/08/27 00:05:15;;;;;;;10.63;7.03;;;26.20;52.50;;;;;;5073291;28;20446;-44
2022/08/27 00:07:42;;;;;;;8.53;7.57;;;26.20;52.60;;;;;;5073297;28;20933;-44
2022/08/27 00:10:11;;;;;;;8.50;5.57;;;26.20;52.70;;;;;;5073312;28;20413;-43
2022/08/27 00:12:38;;;;;;;8.07;6.80;;;26.20;52.70;;;;;;5073141;28;20450;-42
2022/08/27 00:15:05;;;;;;;9.00;6.60;;;26.20;52.80;;;;;;5073123;28;20778;-44
2022/08/27 00:17:34;;;;;;;8.50;6.70;;;26.20;53.00;;;;;;5073048;28;20473;-44
2022/08/27 00:20:01;;;;;;;8.33;7.23;;;26.20;53.00;;;;;;5073084;28;20407;-42
2022/08/27 00:22:27;;;;;;;12.40;6.30;;;26.20;53.00;;;;;;5073164;28;20391;-42
2022/08/27 00:24:52;;;;;;;10.37;6.60;;;26.20;53.10;;;;;;5073132;28;20941;-42
2022/08/27 00:27:18;;;;;;;8.67;6.60;;;26.20;52.90;;;;;;5072874;28;20766;-42
2022/08/27 00:29:45;;;;;;;8.40;6.67;;;26.20;53.10;;;;;;5073020;28;20172;-43
2022/08/27 00:32:11;;;;;;;7.57;6.77;;;26.20;53.20;;;;;;5073027;28;20172;-44
2022/08/27 00:34:37;;;;;;;17.83;11.50;;;26.30;53.30;;;;;;5072811;28;20427;-44
2022/08/27 00:37:05;;;;;;;19.70;15.93;;;26.30;53.30;;;;;;5072653;28;20168;-43
2022/08/27 00:39:31;;;;;;;18.93;15.27;;;26.30;53.30;;;;;;5072727;28;20624;-42
2022/08/27 00:41:59;;;;;;;11.80;9.70;;;26.30;53.20;;;;;;5072749;28;20406;-45
2022/08/27 00:44:26;;;;;;;11.60;9.67;;;26.30;53.20;;;;;;5072633;28;20431;-42
2022/08/27 00:46:55;;;;;;;13.40;9.27;;;26.30;53.20;;;;;;5072402;28;20456;-43
2022/08/27 00:49:36;;;;;;;11.17;9.43;;;26.30;53.20;;;;;;5072613;28;20917;-43
2022/08/27 00:52:07;;;;;;;13.43;10.83;;;26.30;53.30;;;;;;5072645;28;20417;-43
2022/08/27 00:54:33;;;;;;;17.80;15.10;;;26.30;53.40;;;;;;5072390;28;20462;-42
2022/08/27 00:57:02;;;;;;;13.10;11.03;;;26.20;53.50;;;;;;5072381;28;20406;-43
2022/08/27 00:59:29;;;;;;;13.90;12.47;;;26.20;53.60;;;;;;5072639;28;20751;-42
2022/08/27 01:04:42;;;;;;;10.10;9.00;;;26.20;53.70;;;;;;5072559;28;20461;-44
2022/08/27 01:07:09;;;;;;;9.60;7.70;;;26.20;53.80;;;;;;5071731;28;20406;-43
2022/08/27 01:09:37;;;;;;;12.50;7.43;;;26.20;53.80;;;;;;5072260;28;20441;-42
2022/08/27 01:12:04;;;;;;;11.37;7.70;;;26.20;53.80;;;;;;5072283;28;20437;-43
2022/08/27 01:14:30;;;;;;;11.00;8.43;;;26.20;53.90;;;;;;5072478;28;20466;-43
2022/08/27 01:16:57;;;;;;;9.90;8.00;;;26.20;53.80;;;;;;5072110;28;20407;-42
2022/08/27 01:19:34;;;;;;;9.07;7.50;;;26.20;53.70;;;;;;5072499;28;20464;-44
2022/08/27 01:22:25;;;;;;;10.80;8.70;;;26.20;53.90;;;;;;5072232;28;20451;-42
2022/08/27 01:24:55;;;;;;;9.33;8.43;;;26.20;53.80;;;;;;5072183;28;20426;-44
2022/08/27 01:27:24;;;;;;;16.77;9.50;;;26.20;53.90;;;;;;5072123;28;20430;-43
2022/08/27 01:29:50;;;;;;;13.03;8.80;;;26.20;53.90;;;;;;5072097;28;20413;-42
2022/08/27 01:32:24;;;;;;;9.50;8.60;;;26.20;53.80;;;;;;5072105;28;20406;-44
2022/08/27 01:34:50;;;;;;;12.00;9.50;;;26.20;53.80;;;;;;5072082;28;20918;-42
2022/08/27 01:37:18;;;;;;;11.83;8.17;;;26.20;53.90;;;;;;5071797;28;20407;-43
2022/08/27 01:39:44;;;;;;;9.17;7.93;;;26.20;53.90;;;;;;5072007;28;20407;-43
2022/08/27 01:42:22;;;;;;;10.10;8.00;;;26.10;53.90;;;;;;5071925;28;20514;-43
2022/08/27 01:45:02;;;;;;;10.90;7.80;;;26.10;54.00;;;;;;5071957;28;20418;-42
2022/08/27 01:47:28;;;;;;;12.20;7.77;;;26.10;54.10;;;;;;5071669;28;20399;-42
2022/08/27 01:49:55;;;;;;;9.43;7.50;;;26.10;54.10;;;;;;5072186;28;20407;-42
2022/08/27 01:52:25;;;;;;;9.83;8.73;;;26.10;54.10;;;;;;5071816;28;20442;-44
2022/08/27 01:54:51;;;;;;;14.03;9.03;;;26.10;54.10;;;;;;5072011;28;20469;-44
2022/08/27 01:57:18;;;;;;;10.70;8.67;;;26.20;54.20;;;;;;5071654;28;20403;-44
2022/08/27 01:59:44;;;;;;;11.30;8.83;;;26.20;54.10;;;;;;5072052;28;20493;-43
2022/08/27 02:02:13;;;;;;;12.20;8.17;;;26.20;54.10;;;;;;5071992;28;20419;-42
2022/08/27 02:04:40;;;;;;;12.50;10.80;;;26.20;54.10;;;;;;5071734;28;20533;-44
2022/08/27 02:07:05;;;;;;;16.63;10.90;;;26.20;54.10;;;;;;5071505;28;20440;-43
2022/08/27 02:09:32;;;;;;;9.20;8.00;;;26.20;54.90;;;;;;5071690;28;20411;-44
2022/08/27 02:12:02;;;;;;;10.23;8.00;;;26.10;54.20;;;;;;5071777;28;20421;-43
2022/08/27 02:14:28;;;;;;;11.80;7.93;;;26.10;54.10;;;;;;5071761;28;20574;-43
2022/08/27 02:16:55;;;;;;;17.93;8.57;;;26.00;54.20;;;;;;5071392;28;20953;-43
2022/08/27 02:19:21;;;;;;;15.10;8.67;;;26.10;54.30;;;;;;5074430;28;20448;-43
2022/08/27 02:21:48;;;;;;;12.73;6.97;;;26.10;54.30;;;;;;5075459;28;20767;-43
2022/08/27 02:24:14;;;;;;;17.10;8.80;;;26.10;54.20;;;;;;5075238;28;20430;-42
2022/08/27 02:26:40;;;;;;;9.53;8.23;;;26.00;54.30;;;;;;5075138;28;20499;-44
2022/08/27 02:29:07;;;;;;;9.30;8.30;;;26.00;54.30;;;;;;5074014;28;20427;-44
2022/08/27 02:31:33;;;;;;;13.63;8.53;;;26.00;54.30;;;;;;5075315;28;20421;-43
2022/08/27 02:33:59;;;;;;;11.87;8.13;;;26.00;54.40;;;;;;5075368;28;20474;-42
2022/08/27 02:36:25;;;;;;;10.40;8.57;;;26.00;54.40;;;;;;5075092;28;20407;-43
2022/08/27 02:38:51;;;;;;;13.67;8.57;;;26.10;54.30;;;;;;5075118;28;20410;-43
2022/08/27 02:41:17;;;;;;;10.57;8.63;;;26.10;54.30;;;;;;5075164;28;20403;-44
2022/08/27 02:43:44;;;;;;;16.30;8.20;;;26.10;54.10;;;;;;5075089;28;20536;-44
2022/08/27 02:46:11;;;;;;;8.00;7.20;;;26.20;53.90;;;;;;5074724;28;20759;-44
2022/08/27 02:48:38;;;;;;;8.07;7.33;;;26.20;54.00;;;;;;5075050;28;20500;-44
2022/08/27 02:51:04;;;;;;;9.70;8.67;;;26.20;54.00;;;;;;5074953;28;20452;-43
2022/08/27 02:53:32;;;;;;;9.30;8.37;;;26.10;53.80;;;;;;5074739;28;20969;-44
2022/08/27 02:55:58;;;;;;;12.00;7.67;;;26.20;53.90;;;;;;5074543;28;20914;-42
2022/08/27 02:58:24;;;;;;;8.53;7.63;;;26.20;53.70;;;;;;5074798;28;20914;-43
2022/08/27 03:00:50;;;;;;;10.47;7.50;;;26.20;53.70;;;;;;5075087;28;20407;-43
2022/08/27 03:03:16;;;;;;;9.67;7.70;;;26.20;53.80;;;;;;5074976;28;20414;-42
2022/08/27 03:05:42;;;;;;;13.03;8.50;;;26.20;53.80;;;;;;5074336;28;20446;-42
2022/08/27 03:08:08;;;;;;;9.07;8.13;;;26.20;53.80;;;;;;5074986;28;20988;-43
2022/08/27 03:10:34;;;;;;;10.60;7.57;;;26.20;54.00;;;;;;5074582;28;20464;-43
2022/08/27 03:13:00;;;;;;;9.97;7.87;;;26.10;53.90;;;;;;5074448;28;20200;-43
2022/08/27 03:15:26;;;;;;;9.70;6.70;;;26.10;53.70;;;;;;5074540;28;20430;-43
2022/08/27 03:20:39;;;;;;;11.27;6.70;;;26.10;53.60;;;;;;5074484;28;20487;-43
2022/08/27 03:23:08;;;;;;;5.47;4.87;;;26.00;53.50;;;;;;5074508;28;20419;-43
2022/08/27 03:25:35;;;;;;;9.30;5.63;;;26.10;53.50;;;;;;5074047;28;20431;-42
2022/08/27 03:28:01;;;;;;;6.27;3.40;;;26.00;53.40;;;;;;5074391;28;20446;-43
2022/08/27 03:30:27;;;;;;;5.40;4.90;;;26.00;53.40;;;;;;5073662;28;20419;-43
2022/08/27 03:32:52;;;;;;;8.97;5.67;;;26.00;53.50;;;;;;5074082;28;20981;-43
2022/08/27 03:35:19;;;;;;;9.03;5.40;;;26.00;53.50;;;;;;5073993;28;20231;-42
2022/08/27 03:37:45;;;;;;;7.13;6.43;;;26.00;53.60;;;;;;5073875;28;20197;-43
2022/08/27 03:40:13;;;;;;;6.67;5.00;;;26.00;53.50;;;;;;5074118;28;20972;-43
2022/08/27 03:42:39;;;;;;;7.13;6.43;;;26.00;53.50;;;;;;5074049;28;20442;-43
2022/08/27 03:45:06;;;;;;;10.00;5.50;;;26.00;53.50;;;;;;5074172;28;20439;-43
2022/08/27 03:47:33;;;;;;;6.53;5.30;;;26.00;53.60;;;;;;5073819;28;20886;-43
2022/08/27 03:49:59;;;;;;;7.33;5.90;;;26.00;53.60;;;;;;5073832;28;20411;-43
2022/08/27 03:52:26;;;;;;;7.07;6.37;;;26.00;53.60;;;;;;5073700;28;20886;-44
2022/08/27 03:54:51;;;;;;;6.20;5.50;;;26.00;53.60;;;;;;5073745;28;20949;-43
2022/08/27 03:57:17;;;;;;;7.83;6.30;;;26.00;53.70;;;;;;5073510;28;20415;-43
2022/08/27 03:59:43;;;;;;;7.83;5.27;;;26.00;53.60;;;;;;5073584;28;20410;-43
2022/08/27 04:02:09;;;;;;;11.20;6.90;;;26.00;53.80;;;;;;5073671;28;20169;-43
2022/08/27 04:04:35;;;;;;;9.37;6.80;;;26.00;53.80;;;;;;5073415;28;20254;-44
2022/08/27 04:07:01;;;;;;;6.87;5.77;;;26.00;53.80;;;;;;5073657;28;20507;-43
2022/08/27 04:09:27;;;;;;;10.33;7.63;;;26.00;53.70;;;;;;5073705;28;20406;-43
2022/08/27 04:11:53;;;;;;;10.20;6.90;;;26.00;53.80;;;;;;5073883;28;20415;-43
2022/08/27 04:14:18;;;;;;;8.30;6.10;;;26.00;53.70;;;;;;5073533;28;20465;-43
2022/08/27 04:16:44;;;;;;;8.90;6.83;;;26.00;53.80;;;;;;5073469;28;20165;-42
2022/08/27 04:19:11;;;;;;;11.20;7.63;;;26.00;53.90;;;;;;5073275;28;20414;-43
2022/08/27 04:21:37;;;;;;;10.40;7.23;;;26.00;54.00;;;;;;5073070;28;20204;-43
2022/08/27 04:24:03;;;;;;;9.10;7.47;;;26.00;54.00;;;;;;5073155;28;20453;-43
2022/08/27 04:26:29;;;;;;;11.60;8.53;;;26.00;54.00;;;;;;5073014;28;20407;-43
2022/08/27 04:28:57;;;;;;;13.13;8.20;;;25.90;53.50;;;;;;5073105;28;20767;-44
2022/08/27 04:31:24;;;;;;;11.60;8.20;;;26.00;54.00;;;;;;5073303;28;20506;-43
2022/08/27 04:33:52;;;;;;;13.87;8.30;;;26.00;54.00;;;;;;5073210;28;20473;-43
2022/08/27 04:36:18;;;;;;;10.67;8.30;;;26.00;54.10;;;;;;5072932;28;20418;-43
2022/08/27 04:38:44;;;;;;;12.47;8.33;;;26.00;54.10;;;;;;5072943;28;20414;-43
2022/08/27 04:41:21;;;;;;;13.43;9.17;;;26.00;54.20;;;;;;5072580;28;20411;-43
2022/08/27 04:44:01;;;;;;;16.93;10.87;;;26.00;54.20;;;;;;5072492;28;20407;-43
2022/08/27 04:46:29;;;;;;;14.73;10.57;;;26.00;54.30;;;;;;5072551;28;20766;-44
2022/08/27 04:49:00;;;;;;;16.70;10.77;;;26.00;54.60;;;;;;5072755;28;20878;-43
2022/08/27 04:51:28;;;;;;;17.73;12.53;;;26.00;54.70;;;;;;5072775;28;20430;-44
2022/08/27 04:53:55;;;;;;;16.20;11.87;;;26.00;54.90;;;;;;5072460;28;20972;-43
2022/08/27 04:56:22;;;;;;;20.33;12.67;;;26.00;54.90;;;;;;5072393;28;20910;-43
2022/08/27 04:58:49;;;;;;;18.40;13.27;;;26.00;55.00;;;;;;5072884;28;20418;-43
2022/08/27 05:01:21;;;;;;;17.40;11.60;;;26.00;55.20;;;;;;5072443;28;20399;-43
2022/08/27 05:03:47;;;;;;;20.20;13.67;;;25.90;54.90;;;;;;5072573;28;20402;-43
2022/08/27 05:06:13;;;;;;;17.47;12.37;;;26.00;55.30;;;;;;5072105;28;20462;-42
2022/08/27 05:08:40;;;;;;;19.50;12.80;;;25.90;55.00;;;;;;5072409;28;20414;-43
2022/08/27 05:11:08;;;;;;;15.63;11.83;;;25.90;55.10;;;;;;5072326;28;20442;-43
2022/08/27 05:13:34;;;;;;;18.13;13.90;;;25.90;55.30;;;;;;5072200;28;21039;-43
2022/08/27 05:16:02;;;;;;;20.87;12.97;;;25.90;55.20;;;;;;5072326;28;20438;-43
2022/08/27 05:18:29;;;;;;;19.07;13.13;;;25.90;55.30;;;;;;5072265;28;20498;-43
2022/08/27 05:20:56;;;;;;;19.80;14.70;;;25.90;55.50;;;;;;5072354;28;20407;-43
2022/08/27 05:23:22;;;;;;;18.17;12.10;;;25.90;55.50;;;;;;5072199;28;20407;-43
2022/08/27 05:25:49;;;;;;;14.90;12.57;;;25.90;55.60;;;;;;5071942;28;20434;-43
2022/08/27 05:28:20;;;;;;;14.30;11.23;;;25.90;55.70;;;;;;5072146;28;20957;-43
2022/08/27 05:30:48;;;;;;;19.37;14.43;;;25.90;55.60;;;;;;5072120;28;20906;-43
2022/08/27 05:33:16;;;;;;;14.37;10.53;;;25.90;55.60;;;;;;5072122;28;20458;-43
2022/08/27 05:35:56;;;;;;;16.97;11.33;;;25.90;55.60;;;;;;5071793;28;20496;-43
2022/08/27 05:38:23;;;;;;;14.13;12.63;;;25.90;55.60;;;;;;5072007;28;20421;-43
2022/08/27 05:40:50;;;;;;;15.03;11.50;;;25.90;55.80;;;;;;5071971;28;20411;-43
2022/08/27 05:43:17;;;;;;;15.67;11.30;;;25.90;55.60;;;;;;5071984;28;20748;-43
2022/08/27 05:45:46;;;;;;;11.77;10.57;;;25.90;55.80;;;;;;5072087;28;20441;-43
2022/08/27 05:48:16;;;;;;;17.27;13.10;;;25.90;55.80;;;;;;5071941;28;20407;-43
2022/08/27 05:50:44;;;;;;;20.20;13.33;;;25.90;55.90;;;;;;5071816;28;20771;-43
2022/08/27 05:53:12;;;;;;;14.53;11.27;;;25.90;55.90;;;;;;5072386;28;20478;-43
2022/08/27 05:55:44;;;;;;;13.80;11.03;;;25.90;55.80;;;;;;5075790;28;20521;-43
2022/08/27 06:01:05;;;;;;;13.43;10.50;;;25.90;55.70;;;;;;5044653;28;20419;-43
2022/08/27 06:03:32;;;;;;;13.53;10.50;;;25.70;55.80;;;;;;5075808;28;20398;-43
2022/08/27 06:06:06;;;;;;;12.77;11.27;;;25.80;55.60;;;;;;5075386;28;20533;-44
2022/08/27 06:08:32;;;;;;;10.63;8.93;;;25.60;55.80;;;;;;5075803;28;20406;-43
2022/08/27 06:11:04;;;;;;;11.50;8.90;;;25.60;55.80;;;;;;5075833;28;20409;-43
2022/08/27 06:13:31;;;;;;;13.83;11.07;;;25.50;55.80;;;;;;5075840;28;20802;-43
2022/08/27 06:16:12;;;;;;;11.43;9.37;;;25.50;55.90;;;;;;5075380;28;20905;-43
2022/08/27 06:18:39;;;;;;;10.47;8.77;;;25.50;55.80;;;;;;5075878;28;20646;-44
2022/08/27 06:21:06;;;;;;;13.33;9.60;;;25.40;55.90;;;;;;5075549;28;21013;-43
2022/08/27 06:23:33;;;;;;;13.60;10.63;;;25.40;56.00;;;;;;5075537;28;20421;-43
2022/08/27 06:25:59;;;;;;;11.10;8.70;;;25.40;56.00;;;;;;5075175;28;20447;-43
2022/08/27 06:28:30;;;;;;;11.67;8.93;;;25.40;56.00;;;;;;5075439;28;20417;-44
2022/08/27 06:31:03;;;;;;;11.27;9.60;;;25.40;56.10;;;;;;5075260;28;20771;-44
2022/08/27 06:33:29;;;;;;;10.17;7.93;;;25.50;56.20;;;;;;5075167;28;20442;-44
2022/08/27 06:36:01;;;;;;;15.20;10.73;;;25.40;56.20;;;;;;5074888;28;20426;-43
2022/08/27 06:38:27;;;;;;;14.23;9.77;;;25.50;56.10;;;;;;5075479;28;20751;-44
2022/08/27 06:40:54;;;;;;;11.20;9.67;;;25.50;56.20;;;;;;5075078;28;20771;-44
2022/08/27 06:43:20;;;;;;;12.60;10.27;;;25.50;56.20;;;;;;5075004;28;20914;-44
2022/08/27 06:45:46;;;;;;;13.20;9.93;;;25.50;56.10;;;;;;5075039;28;20459;-44
2022/08/27 06:48:11;;;;;;;12.23;9.30;;;25.50;56.10;;;;;;5074924;28;20558;-44
2022/08/27 06:50:39;;;;;;;12.73;9.63;;;25.50;56.20;;;;;;5075040;28;20533;-44
2022/08/27 06:53:05;;;;;;;14.17;9.83;;;25.50;56.20;;;;;;5074867;28;20201;-44
2022/08/27 06:55:32;;;;;;;11.80;9.83;;;25.40;56.20;;;;;;5075008;28;20446;-43
2022/08/27 06:57:58;;;;;;;12.10;9.20;;;25.50;56.50;;;;;;5074767;28;20410;-43
2022/08/27 07:00:24;;;;;;;12.17;10.43;;;25.50;56.30;;;;;;5074718;28;20399;-44
2022/08/27 07:02:50;;;;;;;12.87;9.13;;;25.50;56.50;;;;;;5074938;28;20419;-44
2022/08/27 07:05:16;;;;;;;12.80;9.50;;;25.50;56.30;;;;;;5073238;28;20966;-44
2022/08/27 07:07:42;;;;;;;9.27;8.30;;;25.50;56.30;;;;;;5074732;28;20180;-43
2022/08/27 07:10:08;;;;;;;10.40;8.90;;;25.60;56.30;;;;;;5074586;28;20775;-44
2022/08/27 07:12:33;;;;;;;11.40;8.83;;;25.60;56.10;;;;;;5074479;28;20233;-43
2022/08/27 07:14:59;;;;;;;12.60;9.10;;;25.60;56.00;;;;;;5074674;28;20789;-43
2022/08/27 07:17:25;;;;;;;9.80;8.63;;;25.60;56.00;;;;;;5074273;28;20612;-44
2022/08/27 07:19:51;;;;;;;9.43;7.93;;;25.60;56.10;;;;;;5074575;28;20594;-44
2022/08/27 07:22:16;;;;;;;11.13;8.80;;;25.50;56.00;;;;;;5074312;28;20536;-43
2022/08/27 07:24:42;;;;;;;11.10;9.77;;;25.60;56.00;;;;;;5074271;28;20568;-44
2022/08/27 07:27:08;;;;;;;11.13;9.80;;;25.50;56.00;;;;;;5073994;28;20192;-44
2022/08/27 07:29:34;;;;;;;10.47;8.37;;;25.50;56.00;;;;;;5074180;28;20417;-43
2022/08/27 07:32:00;;;;;;;9.97;8.57;;;25.50;56.00;;;;;;5074152;28;20507;-44
2022/08/27 07:34:26;;;;;;;12.70;9.53;;;25.50;55.80;;;;;;5074098;28;21008;-44
2022/08/27 07:36:52;;;;;;;13.60;9.37;;;25.50;55.70;;;;;;5073913;28;20219;-44
2022/08/27 07:39:18;;;;;;;12.60;9.50;;;25.50;55.60;;;;;;5074035;28;20823;-44
2022/08/27 07:44:28;;;;;;;10.80;9.37;;;25.40;55.60;;;;;;5074193;28;20572;-44
2022/08/27 07:46:55;;;;;;;16.07;11.50;;;25.40;55.70;;;;;;5073690;28;20410;-44
2022/08/27 07:49:22;;;;;;;11.23;9.60;;;25.50;55.60;;;;;;5073840;28;20180;-44
2022/08/27 07:51:48;;;;;;;15.50;11.47;;;25.40;55.70;;;;;;5073838;28;20410;-43
2022/08/27 07:54:14;;;;;;;15.27;11.30;;;25.40;55.70;;;;;;5073843;28;20462;-44
2022/08/27 07:56:41;;;;;;;16.97;10.67;;;25.40;55.60;;;;;;5073691;28;20460;-44
2022/08/27 07:59:07;;;;;;;17.27;11.63;;;25.40;55.70;;;;;;5073673;28;20403;-44
2022/08/27 08:01:33;;;;;;;14.97;10.83;;;25.40;56.50;;;;;;5073618;28;20398;-43
2022/08/27 08:03:59;;;;;;;12.07;9.50;;;25.40;55.90;;;;;;5073440;28;20525;-44
2022/08/27 08:06:25;;;;;;;14.10;10.60;;;25.40;55.80;;;;;;5073490;28;20196;-44
2022/08/27 08:08:51;;;;;;;14.50;10.30;;;25.40;55.80;;;;;;5073517;28;20744;-43
2022/08/27 08:11:17;;;;;;;11.83;9.70;;;25.40;55.80;;;;;;5073779;28;20407;-43
2022/08/27 08:13:44;;;;;;;13.50;9.47;;;25.40;55.80;;;;;;5073238;28;20537;-44
2022/08/27 08:16:11;;;;;;;19.10;11.70;;;25.40;55.70;;;;;;5072719;28;20427;-44
2022/08/27 08:18:37;;;;;;;15.90;10.43;;;25.40;55.60;;;;;;5073565;28;20403;-44
2022/08/27 08:21:10;;;;;;;12.70;10.70;;;25.40;55.70;;;;;;5073143;28;20817;-44
2022/08/27 08:23:37;;;;;;;15.67;10.47;;;25.40;55.80;;;;;;5073191;28;20740;-44
2022/08/27 08:26:03;;;;;;;12.40;11.10;;;25.40;55.80;;;;;;5072880;28;20423;-44
2022/08/27 08:28:29;;;;;;;12.17;10.10;;;25.40;55.80;;;;;;5073159;28;20415;-44
2022/08/27 08:30:57;;;;;;;13.40;10.97;;;25.40;55.90;;;;;;5072988;28;20494;-44
2022/08/27 08:33:23;;;;;;;16.40;10.60;;;25.40;56.00;;;;;;5072910;28;20984;-44
2022/08/27 08:35:49;;;;;;;10.90;9.33;;;25.40;56.10;;;;;;5072672;28;20429;-44
2022/08/27 08:38:16;;;;;;;14.10;10.87;;;25.40;56.00;;;;;;5072905;28;20485;-43
2022/08/27 08:40:48;;;;;;;11.93;9.97;;;25.50;56.00;;;;;;5072803;28;20395;-44
2022/08/27 08:43:29;;;;;;;10.33;9.30;;;25.50;56.00;;;;;;5072710;28;20909;-43
2022/08/27 08:45:58;;;;;;;10.20;8.27;;;25.50;56.00;;;;;;5072443;28;20415;-44
2022/08/27 08:48:26;;;;;;;10.43;9.30;;;25.50;55.90;;;;;;5072583;28;20983;-44
2022/08/27 08:51:06;;;;;;;13.40;7.67;;;25.50;55.80;;;;;;5072719;28;20762;-44
2022/08/27 08:53:54;;;;;;;8.87;7.50;;;25.50;55.60;;;;;;5072786;28;20985;-44
2022/08/27 08:56:48;;;;;;;10.10;7.03;;;25.50;55.60;;;;;;5072351;28;20413;-43
2022/08/27 08:59:20;;;;;;;8.13;7.23;;;25.50;55.60;;;;;;5072629;28;20398;-44
2022/08/27 09:01:48;;;;;;;10.40;6.20;;;25.40;55.50;;;;;;5072600;28;20406;-44
2022/08/27 09:04:14;;;;;;;7.97;7.10;;;25.40;55.60;;;;;;5072172;28;21233;-44
2022/08/27 09:07:10;;;;;;;7.90;7.10;;;25.40;55.60;;;;;;5072173;28;20394;-44
2022/08/27 09:09:50;;;;;;;7.40;6.30;;;25.30;55.60;;;;;;5072432;28;20395;-43
2022/08/27 09:12:23;;;;;;;11.90;6.97;;;25.40;55.80;;;;;;5072344;28;20413;-44
2022/08/27 09:15:15;;;;;;;9.30;7.57;;;25.30;55.90;;;;;;5072177;28;20462;-44
2022/08/27 09:17:42;;;;;;;10.30;8.10;;;25.40;56.00;;;;;;5072328;28;20418;-45
2022/08/27 09:20:10;;;;;;;7.70;6.07;;;25.30;56.00;;;;;;5072253;28;20394;-44
2022/08/27 09:22:47;;;;;;;8.50;7.30;;;25.30;56.00;;;;;;5072202;28;20403;-44
2022/08/27 09:25:19;;;;;;;7.70;7.00;;;25.40;56.10;;;;;;5072263;28;20433;-44
2022/08/27 09:27:46;;;;;;;8.00;6.10;;;25.30;56.10;;;;;;5071276;28;20403;-44
2022/08/27 09:30:24;;;;;;;8.37;6.73;;;25.40;56.20;;;;;;5072023;28;20391;-44
2022/08/27 09:32:56;;;;;;;7.70;5.80;;;25.40;56.20;;;;;;5072205;28;20409;-44
2022/08/27 09:35:25;;;;;;;6.60;5.97;;;25.40;56.10;;;;;;5071958;28;20826;-43
2022/08/27 09:37:54;;;;;;;7.00;5.40;;;25.40;56.10;;;;;;5072027;28;20415;-44
2022/08/27 09:40:22;;;;;;;6.67;5.63;;;25.40;56.00;;;;;;5071835;28;20405;-44
2022/08/27 09:42:53;;;;;;;7.67;6.60;;;25.30;56.10;;;;;;5072128;28;20423;-44
2022/08/27 09:45:23;;;;;;;7.90;5.70;;;25.40;56.40;;;;;;5071833;28;20509;-44
2022/08/27 09:48:06;;;;;;;6.60;5.30;;;25.40;56.40;;;;;;5072001;28;20502;-44
2022/08/27 09:50:46;;;;;;;4.57;3.93;;;25.40;56.40;;;;;;5071896;28;20421;-44
2022/08/27 09:53:24;;;;;;;4.50;4.10;;;25.40;56.40;;;;;;5071870;28;20452;-44
2022/08/27 09:56:06;;;;;;;5.30;3.50;;;25.40;56.50;;;;;;5071798;28;20430;-44
2022/08/27 09:58:49;;;;;;;3.83;3.13;;;25.40;56.50;;;;;;5071774;28;20406;-44
2022/08/27 10:01:25;;;;;;;3.57;3.27;;;25.40;56.40;;;;;;5071739;28;20387;-44
2022/08/27 10:04:07;;;;;;;5.00;3.33;;;25.30;56.40;;;;;;5071985;28;20415;-44
2022/08/27 10:06:34;;;;;;;3.67;2.87;;;25.30;56.80;;;;;;5074013;23;20525;-44
2022/08/27 10:09:16;;;;;;;4.90;3.20;;;25.30;56.80;;;;;;5043343;28;20903;-45
2022/08/27 10:12:16;;;;;;;3.90;3.27;;;25.30;56.80;;;;;;5031803;28;20404;-44
2022/08/27 10:14:56;;;;;;;7.37;3.70;;;25.30;56.80;;;;;;5031890;28;20444;-44
2022/08/27 10:17:29;;;;;;;4.70;3.90;;;25.30;56.90;;;;;;5031433;28;20436;-43
2022/08/27 10:20:01;;;;;;;5.33;4.20;;;25.30;57.20;;;;;;5032009;28;20467;-42
2022/08/27 10:22:55;;;;;;;5.60;4.67;;;25.30;57.20;;;;;;5031784;28;20401;-43
2022/08/27 10:25:34;;;;;;;6.47;4.50;;;25.40;57.10;;;;;;5032006;28;20408;-43
2022/08/27 10:28:18;;;;;;;6.87;4.30;;;25.40;57.10;;;;;;5032026;28;20884;-44
2022/08/27 10:31:22;;;;;;;4.50;4.03;;;25.40;57.30;;;;;;5031908;28;20455;-43
2022/08/27 10:34:00;;;;;;;5.50;4.33;;;25.40;57.20;;;;;;5025172;28;20459;-43
2022/08/27 10:36:36;;;;;;;8.00;3.93;;;25.40;57.30;;;;;;5031708;28;20424;-43
2022/08/27 10:39:30;;;;;;;3.23;2.50;;;25.40;57.60;;;;;;5031903;28;20891;-43
2022/08/27 10:42:20;;;;;;;4.17;2.90;;;25.50;57.90;;;;;;5015521;28;20440;-43
2022/08/27 10:45:10;;;;;;;2.50;1.77;;;25.50;58.10;;;;;;5035183;28;20923;-43
2022/08/27 10:47:52;;;;;;;3.13;2.03;;;25.50;58.00;;;;;;5034755;28;20448;-44
2022/08/27 10:50:44;;;;;;;3.60;2.27;;;25.50;58.30;;;;;;5035123;28;20393;-43
2022/08/27 10:53:29;;;;;;;4.00;2.50;;;25.50;58.10;;;;;;5035175;28;20452;-43
2022/08/27 10:56:12;;;;;;;2.40;2.00;;;25.50;58.70;;;;;;5035158;28;20892;-43
2022/08/27 10:58:54;;;;;;;3.47;2.47;;;25.50;57.90;;;;;;5035059;28;20389;-43
2022/08/27 11:01:37;;;;;;;2.90;2.60;;;25.60;58.00;;;;;;5035251;28;20722;-43
2022/08/27 11:04:14;;;;;;;3.93;2.90;;;25.60;58.20;;;;;;5035335;28;20463;-43
2022/08/27 11:06:57;;;;;;;7.00;6.40;;;25.60;58.20;;;;;;5035149;28;20448;-43
2022/08/27 11:09:49;;;;;;;5.37;4.87;;;25.60;58.50;;;;;;5035496;28;20397;-43
2022/08/27 11:12:23;;;;;;;2.63;1.83;;;25.60;58.20;;;;;;5035378;28;20397;-43
2022/08/27 11:14:52;;;;;;;2.60;1.57;;;25.60;58.10;;;;;;5034999;28;20459;-43
2022/08/27 11:17:34;;;;;;;2.50;1.70;;;25.50;57.90;;;;;;5034578;28;20460;-43
2022/08/27 11:20:15;;;;;;;3.30;2.53;;;25.60;58.00;;;;;;5034899;28;20389;-43
2022/08/27 11:23:04;;;;;;;2.27;1.63;;;25.50;57.80;;;;;;5034966;28;20534;-43
2022/08/27 11:25:54;;;;;;;2.20;1.90;;;25.40;57.90;;;;;;5034030;28;20432;-43
2022/08/27 11:28:26;;;;;;;2.70;2.07;;;25.40;58.20;;;;;;5029207;28;20440;-43
2022/08/27 11:30:51;;;;;;;5.53;2.03;;;25.50;58.50;;;;;;5034971;28;20475;-43
2022/08/27 11:33:33;;;;;;;2.50;2.20;;;25.50;58.60;;;;;;5034825;28;20543;-43
2022/08/27 11:36:50;;;;;;;3.73;2.47;;;25.50;58.30;;;;;;5034216;28;20622;-43
2022/08/27 11:39:42;;;;;;;5.30;2.60;;;25.50;58.30;;;;;;5011466;28;20417;-43
2022/08/27 11:42:34;;;;;;;3.87;2.80;;;25.50;58.30;;;;;;5034719;28;20396;-43
2022/08/27 11:45:17;;;;;;;3.40;2.80;;;25.50;58.40;;;;;;5032716;28;20421;-43
2022/08/27 11:47:58;;;;;;;3.73;2.60;;;25.50;58.30;;;;;;5034068;28;20482;-43
2022/08/27 11:50:25;;;;;;;3.63;2.73;;;25.40;58.10;;;;;;5034203;28;20439;-43
2022/08/27 11:53:07;;;;;;;2.50;2.17;;;25.40;58.10;;;;;;5032453;28;20486;-43
2022/08/27 11:55:36;;;;;;;3.80;3.10;;;25.40;58.00;;;;;;5034008;28;20463;-43
2022/08/27 11:58:28;;;;;;;5.33;3.33;;;25.40;58.10;;;;;;5034121;28;20487;-43
2022/08/27 12:00:55;;;;;;;7.57;5.87;;;25.50;58.20;;;;;;5033664;28;20437;-43
2022/08/27 12:03:22;;;;;;;8.33;4.80;;;25.50;58.50;;;;;;5034065;28;20437;-43
2022/08/27 12:05:54;;;;;;;5.17;4.57;;;25.50;58.40;;;;;;5033979;28;20416;-43
2022/08/27 12:08:20;;;;;;;5.27;4.77;;;25.60;58.20;;;;;;5033732;28;20444;-43
2022/08/27 12:11:14;;;;;;;9.50;8.53;;;25.60;58.50;;;;;;5034361;28;20979;-43
2022/08/27 12:13:56;;;;;;;7.10;5.47;;;25.70;58.30;;;;;;5034191;28;20478;-43
2022/08/27 12:16:23;;;;;;;6.73;6.03;;;25.70;58.40;;;;;;5033739;28;20452;-43
2022/08/27 12:19:14;;;;;;;4.60;3.73;;;25.70;58.30;;;;;;5033822;28;20835;-43
2022/08/27 12:22:00;;;;;;;4.70;4.23;;;25.70;58.20;;;;;;5033612;28;20400;-43
2022/08/27 12:24:41;;;;;;;8.23;7.43;;;25.70;58.20;;;;;;5034042;28;20479;-43
2022/08/27 12:27:35;;;;;;;9.63;7.50;;;25.80;58.20;;;;;;5033525;28;20501;-43
2022/08/27 12:30:18;;;;;;;8.00;5.70;;;25.80;58.20;;;;;;5033661;28;20950;-43
2022/08/27 12:32:47;;;;;;;7.60;5.37;;;25.80;58.30;;;;;;5033933;28;20939;-43
2022/08/27 12:35:30;;;;;;;6.67;6.00;;;25.80;58.10;;;;;;5033829;28;20401;-43
2022/08/27 12:38:38;;;;;;;7.13;6.07;;;25.80;57.90;;;;;;5033767;28;20443;-43
2022/08/27 12:41:07;;;;;;;6.60;5.33;;;25.70;57.60;;;;;;5032296;28;20459;-43
2022/08/27 12:43:37;;;;;;;5.33;4.47;;;25.70;57.80;;;;;;5033338;28;20408;-43
2022/08/27 12:46:05;;;;;;;8.23;6.03;;;25.70;57.80;;;;;;5033415;28;20416;-43
2022/08/27 12:48:44;;;;;;;6.47;5.67;;;25.70;58.10;;;;;;5033279;28;20415;-43
2022/08/27 12:51:17;;;;;;;5.70;5.20;;;25.70;58.00;;;;;;5033575;28;20475;-43
2022/08/27 12:53:45;;;;;;;7.80;6.47;;;25.60;58.00;;;;;;5033230;28;20452;-43
2022/08/27 12:56:11;;;;;;;6.03;5.43;;;25.60;58.10;;;;;;5032759;28;20412;-43
2022/08/27 12:59:11;;;;;;;7.57;6.57;;;25.70;58.40;;;;;;5033078;28;20816;-43
2022/08/27 13:02:03;;;;;;;7.43;6.53;;;25.70;58.40;;;;;;5013549;28;20181;-43
2022/08/27 13:04:32;;;;;;;10.40;6.70;;;25.70;58.30;;;;;;5029861;28;20777;-43
2022/08/27 13:06:58;;;;;;;7.67;6.87;;;25.70;58.40;;;;;;5032417;28;20535;-43
2022/08/27 13:09:34;;;;;;;8.67;6.03;;;25.70;58.40;;;;;;5032683;28;20784;-43
2022/08/27 13:12:02;;;;;;;6.33;5.57;;;25.70;58.00;;;;;;5032697;28;20954;-43